createdAt,value
2023-04-24T00:01:54.821Z,98040.75
2023-04-24T00:05:57.771Z,98039.69
2023-04-24T00:10:00.979Z,98029.19
2023-04-24T00:14:08.568Z,98031.31
2023-04-24T00:18:11.352Z,98032.13
2023-04-24T00:22:16.655Z,98025.78
2023-04-24T00:26:19.426Z,98022.91
2023-04-24T00:30:23.694Z,98015.81
2023-04-24T00:34:26.712Z,98030.31
2023-04-24T00:38:29.395Z,98025.56
2023-04-24T00:42:32.344Z,98043.50
2023-04-24T00:46:36.589Z,98048.00
2023-04-24T00:50:40.509Z,98054.34
2023-04-24T00:54:43.457Z,98062.78
2023-04-24T00:58:46.894Z,98061.19
2023-04-24T01:02:53.131Z,98050.66
2023-04-24T01:06:57.715Z,98053.28
2023-04-24T01:11:00.721Z,98066.22
2023-04-24T01:15:05.003Z,98067.00
2023-04-24T01:19:09.855Z,98069.38
2023-04-24T01:23:14.222Z,98062.75
2023-04-24T01:27:17.567Z,98058.31
2023-04-24T01:31:20.889Z,98053.31
2023-04-24T01:35:23.926Z,98057.78
2023-04-24T01:39:29.559Z,98064.88
2023-04-24T01:43:32.579Z,98078.84
2023-04-24T01:47:35.380Z,98075.97
2023-04-24T01:51:38.325Z,98079.09
2023-04-24T01:55:42.652Z,98083.78
2023-04-24T01:59:46.227Z,98083.56
2023-04-24T02:03:49.364Z,98085.94
2023-04-24T02:07:52.184Z,98085.09
2023-04-24T02:11:57.668Z,98101.97
2023-04-24T02:16:00.620Z,98117.19
2023-04-24T02:20:03.911Z,98131.94
2023-04-24T02:24:06.822Z,98140.06
2023-04-24T02:28:11.057Z,98133.22
2023-04-24T02:32:16.919Z,98129.47
2023-04-24T02:36:19.752Z,98135.56
2023-04-24T02:40:22.604Z,98114.41
2023-04-24T02:44:27.267Z,98132.28
2023-04-24T02:48:30.067Z,98127.66
2023-04-24T02:52:33.448Z,98081.97
2023-04-24T02:56:36.222Z,98132.13
2023-04-24T03:00:41.220Z,98131.16
2023-04-24T03:04:44.224Z,98133.53
2023-04-24T03:08:47.142Z,98126.41
2023-04-24T03:12:50.052Z,98133.28
2023-04-24T03:16:54.118Z,98143.25
2023-04-24T03:20:57.075Z,98143.25
2023-04-24T03:24:59.838Z,98140.94
2023-04-24T03:29:03.053Z,98159.09
2023-04-24T03:33:07.575Z,98171.19
2023-04-24T03:37:10.434Z,98170.16
2023-04-24T03:41:13.397Z,98160.69
2023-04-24T03:45:16.819Z,98148.66
2023-04-24T03:49:22.445Z,98173.22
2023-04-24T03:53:26.058Z,98161.34
2023-04-24T03:57:28.795Z,98169.59
2023-04-24T04:01:31.851Z,98171.59
2023-04-24T04:05:36.539Z,98164.75
2023-04-24T04:09:39.341Z,98162.84
2023-04-24T04:13:42.199Z,98172.38
2023-04-24T04:17:45.142Z,98182.97
2023-04-24T04:21:53.160Z,98166.75
2023-04-24T04:25:56.106Z,98180.72
2023-04-24T04:29:58.798Z,98190.78
2023-04-24T04:34:02.699Z,98194.16
2023-04-24T04:38:09.567Z,98197.66
2023-04-24T04:42:12.805Z,98197.91
2023-04-24T04:46:15.530Z,98204.72
2023-04-24T04:50:20.496Z,98150.75
2023-04-24T04:54:24.898Z,98222.16
2023-04-24T04:58:27.886Z,98168.72
2023-04-24T05:02:30.727Z,98233.00
2023-04-24T05:06:33.882Z,98234.03
2023-04-24T05:10:38.701Z,98248.09
2023-04-24T05:14:41.996Z,98245.16
2023-04-24T05:18:45.154Z,98247.53
2023-04-24T05:22:47.766Z,98258.44
2023-04-24T05:26:52.359Z,98256.56
2023-04-24T05:30:55.278Z,98275.81
2023-04-24T05:34:59.013Z,98274.78
2023-04-24T05:39:04.321Z,98282.16
2023-04-24T05:43:08.584Z,98288.69
2023-04-24T05:47:11.350Z,98293.66
2023-04-24T05:51:14.445Z,98310.19
2023-04-24T05:55:19.466Z,98309.84
2023-04-24T05:59:24.767Z,98269.34
2023-04-24T06:03:27.952Z,98314.84
2023-04-24T06:07:31.178Z,98324.22
2023-04-24T06:11:33.929Z,98331.66
2023-04-24T06:15:38.423Z,98330.53
2023-04-24T06:19:41.653Z,98325.25
2023-04-24T06:23:44.526Z,98335.69
2023-04-24T06:27:47.277Z,98352.34
2023-04-24T06:31:51.699Z,98352.06
2023-04-24T06:35:57.080Z,98359.66
2023-04-24T06:40:00.238Z,98368.03
2023-04-24T06:44:03.350Z,98340.22
2023-04-24T06:48:07.613Z,98363.31
2023-04-24T06:52:10.526Z,98364.34
2023-04-24T06:56:14.344Z,98361.28
2023-04-24T07:00:18.681Z,98370.06
2023-04-24T07:04:23.053Z,98368.97
2023-04-24T07:08:26.488Z,98375.72
2023-04-24T07:12:29.144Z,98376.97
2023-04-24T07:16:32.018Z,98380.81
2023-04-24T07:20:36.600Z,98381.97
2023-04-24T07:24:39.253Z,98375.69
2023-04-24T07:28:42.369Z,98388.38
2023-04-24T07:32:45.019Z,98382.78
2023-04-24T07:36:49.376Z,98389.53
2023-04-24T07:40:52.289Z,98397.38
2023-04-24T07:44:55.072Z,98403.03
2023-04-24T07:49:11.681Z,98396.09
2023-04-24T07:53:17.561Z,98402.97
2023-04-24T07:57:20.868Z,98411.91
2023-04-24T08:01:23.616Z,98415.00
2023-04-24T08:05:28.429Z,98409.75
2023-04-24T08:09:32.653Z,98418.03
2023-04-24T08:13:35.269Z,98401.09
2023-04-24T08:17:38.005Z,98436.19
2023-04-24T08:21:40.694Z,98446.88
2023-04-24T08:25:44.649Z,98446.84
2023-04-24T08:29:47.281Z,98460.63
2023-04-24T08:33:49.915Z,98456.50
2023-04-24T08:37:55.580Z,98450.97
2023-04-24T08:42:06.129Z,98463.91
2023-04-24T08:46:12.176Z,98468.16
2023-04-24T08:50:16.265Z,98478.19
2023-04-24T08:54:18.735Z,98479.44
2023-04-24T08:58:23.177Z,98482.38
2023-04-24T09:02:27.339Z,98492.72
2023-04-24T09:06:31.239Z,98493.22
2023-04-24T09:10:33.679Z,98505.41
2023-04-24T09:14:40.132Z,98501.53
2023-04-24T09:18:42.826Z,98495.00
2023-04-24T09:22:47.296Z,98494.00
2023-04-24T09:26:50.599Z,98506.28
2023-04-24T09:31:06.522Z,98509.53
2023-04-24T09:35:11.405Z,98511.63
2023-04-24T09:39:16.495Z,98512.53
2023-04-24T09:43:19.292Z,98518.88
2023-04-24T09:47:23.350Z,98521.28
2023-04-24T09:51:36.293Z,98512.28
2023-04-24T09:55:41.939Z,98518.13
2023-04-24T09:59:46.200Z,98506.16
2023-04-24T10:03:50.365Z,98510.31
2023-04-24T10:07:53.769Z,98515.09
2023-04-24T10:11:56.830Z,98517.59
2023-04-24T10:16:01.244Z,98534.00
2023-04-24T10:20:07.221Z,98532.41
2023-04-24T10:24:11.016Z,98543.22
2023-04-24T10:28:14.248Z,98549.19
2023-04-24T10:32:16.853Z,98559.69
2023-04-24T10:36:21.069Z,98553.53
2023-04-24T10:40:28.625Z,98557.84
2023-04-24T10:44:38.850Z,98574.88
2023-04-24T10:48:45.105Z,98557.44
2023-04-24T10:52:52.345Z,98590.88
2023-04-24T10:56:55.611Z,98592.97
2023-04-24T11:00:59.599Z,98594.28
2023-04-24T11:05:05.179Z,98597.25
2023-04-24T11:09:13.310Z,98607.00
2023-04-24T11:13:23.988Z,98603.16
2023-04-24T11:17:32.101Z,98619.53
2023-04-24T11:21:41.988Z,98611.09
2023-04-24T11:25:47.637Z,98613.25
2023-04-24T11:29:51.510Z,98603.78
2023-04-24T11:33:54.946Z,98605.19
2023-04-24T11:42:07.824Z,98601.34
2023-04-24T11:46:10.591Z,98594.16
2023-04-24T11:50:15.488Z,98618.09
2023-04-24T11:54:18.175Z,98615.00
2023-04-24T11:58:24.279Z,98616.44
2023-04-24T12:02:28.205Z,98613.38
2023-04-24T12:06:31.730Z,98607.28
2023-04-24T12:10:35.678Z,98615.22
2023-04-24T12:14:52.534Z,98613.13
2023-04-24T12:18:55.304Z,98618.97
2023-04-24T12:22:59.194Z,98625.03
2023-04-24T12:27:02.556Z,98628.22
2023-04-24T12:31:06.581Z,98628.72
2023-04-24T12:35:09.945Z,98623.19
2023-04-24T12:39:16.437Z,98606.66
2023-04-24T12:43:20.447Z,98627.28
2023-04-24T12:47:24.738Z,98629.75
2023-04-24T12:51:27.405Z,98632.16
2023-04-24T12:55:30.214Z,98633.22
2023-04-24T12:59:32.901Z,98633.16
2023-04-24T13:03:37.640Z,98635.50
2023-04-24T13:07:40.416Z,98630.25
2023-04-24T13:11:43.063Z,98623.44
2023-04-24T13:15:45.732Z,98629.81
2023-04-24T13:19:52.424Z,98631.03
2023-04-24T13:23:57.315Z,98626.28
2023-04-24T13:27:59.906Z,98618.50
2023-04-24T13:32:03.027Z,98589.28
2023-04-24T13:36:07.267Z,98613.94
2023-04-24T13:40:11.287Z,98614.03
2023-04-24T13:44:14.018Z,98623.28
2023-04-24T13:48:16.879Z,98628.53
2023-04-24T13:52:21.280Z,98630.16
2023-04-24T13:56:24.365Z,98633.16
2023-04-24T14:00:27.276Z,98642.16
2023-04-24T14:04:30.101Z,98634.28
2023-04-24T14:08:34.612Z,98634.03
2023-04-24T14:12:37.385Z,98639.34
2023-04-24T14:16:40.191Z,98618.44
2023-04-24T14:20:43.296Z,98624.00
2023-04-24T14:24:47.268Z,98615.78
2023-04-24T14:28:51.116Z,98621.66
2023-04-24T14:32:55.140Z,98618.63
2023-04-24T14:36:57.874Z,98586.41
2023-04-24T14:41:06.808Z,98613.41
2023-04-24T14:45:12.561Z,98623.41
2023-04-24T14:49:15.426Z,98608.78
2023-04-24T14:53:18.269Z,98600.53
2023-04-24T14:57:22.305Z,98584.94
2023-04-24T15:01:26.539Z,98602.41
2023-04-24T15:05:29.904Z,98595.84
2023-04-24T15:09:33.577Z,98604.91
2023-04-24T15:13:37.641Z,98603.13
2023-04-24T15:17:40.358Z,98596.28
2023-04-24T15:21:44.107Z,98605.03
2023-04-24T15:25:47.030Z,98606.31
2023-04-24T15:29:51.068Z,98612.38
2023-04-24T15:33:56.106Z,98606.13
2023-04-24T15:37:58.837Z,98613.31
2023-04-24T15:42:01.573Z,98607.56
2023-04-24T15:46:05.656Z,98624.00
2023-04-24T15:50:12.779Z,98605.72
2023-04-24T15:54:16.965Z,98614.97
2023-04-24T15:58:20.555Z,98627.91
2023-04-24T16:02:24.591Z,98627.59
2023-04-24T16:06:27.912Z,98643.47
2023-04-24T16:10:30.641Z,98651.31
2023-04-24T16:14:33.311Z,98635.09
2023-04-24T16:18:37.375Z,98636.13
2023-04-24T16:22:40.195Z,98631.59
2023-04-24T16:26:43.401Z,98633.72
2023-04-24T16:30:46.036Z,98635.31
2023-04-24T16:34:50.568Z,98630.56
2023-04-24T16:38:53.214Z,98629.97
2023-04-24T16:42:55.849Z,98621.25
2023-04-24T16:46:58.569Z,98631.94
2023-04-24T16:51:02.786Z,98629.81
2023-04-24T16:55:06.084Z,98626.13
2023-04-24T16:59:08.865Z,98630.38
2023-04-24T17:03:12.894Z,98631.50
2023-04-24T17:07:17.629Z,98635.25
2023-04-24T17:11:21.104Z,98637.28
2023-04-24T17:15:23.717Z,98639.91
2023-04-24T17:19:27.012Z,98633.03
2023-04-24T17:23:31.220Z,98644.41
2023-04-24T17:27:34.210Z,98640.97
2023-04-24T17:31:37.061Z,98639.84
2023-04-24T17:35:39.741Z,98639.59
2023-04-24T17:39:43.691Z,98633.75
2023-04-24T17:43:46.461Z,98631.13
2023-04-24T17:47:50.622Z,98625.06
2023-04-24T17:51:54.527Z,98626.59
2023-04-24T17:56:01.930Z,98627.38
2023-04-24T18:00:05.246Z,98624.16
2023-04-24T18:04:08.119Z,98628.44
2023-04-24T18:08:11.422Z,98632.88
2023-04-24T18:12:16.035Z,98630.75
2023-04-24T18:16:18.898Z,98625.66
2023-04-24T18:20:21.749Z,98638.78
2023-04-24T18:24:24.548Z,98636.44
2023-04-24T18:28:31.429Z,98645.13
2023-04-24T18:32:34.151Z,98647.09
2023-04-24T18:36:36.998Z,98646.25
2023-04-24T18:40:39.774Z,98654.97
2023-04-24T18:44:43.746Z,98644.56
2023-04-24T18:48:46.571Z,98649.25
2023-04-24T18:52:49.466Z,98653.94
2023-04-24T18:56:54.869Z,98659.38
2023-04-24T19:00:58.931Z,98663.75
2023-04-24T19:05:01.619Z,98665.16
2023-04-24T19:09:04.394Z,98673.75
2023-04-24T19:13:07.087Z,98679.03
2023-04-24T19:17:11.169Z,98686.13
2023-04-24T19:21:14.415Z,98681.63
2023-04-24T19:25:17.106Z,98693.41
2023-04-24T19:29:19.956Z,98700.84
2023-04-24T19:33:24.055Z,98704.41
2023-04-24T19:37:26.777Z,98704.72
2023-04-24T19:41:29.694Z,98720.47
2023-04-24T19:45:32.375Z,98722.34
2023-04-24T19:49:36.454Z,98730.53
2023-04-24T19:53:39.358Z,98721.22
2023-04-24T19:57:42.458Z,98728.81
2023-04-24T20:01:45.181Z,98727.78
2023-04-24T20:05:49.225Z,98728.44
2023-04-24T20:09:52.094Z,98730.91
2023-04-24T20:13:54.882Z,98738.78
2023-04-24T20:17:57.501Z,98739.22
2023-04-24T20:22:01.976Z,98732.81
2023-04-24T20:26:05.022Z,98731.41
2023-04-24T20:30:12.780Z,98732.78
2023-04-24T20:34:15.549Z,98726.28
2023-04-24T20:38:19.533Z,98718.34
2023-04-24T20:42:22.156Z,98710.19
2023-04-24T20:46:24.783Z,98707.16
2023-04-24T20:50:27.785Z,98708.25
2023-04-24T20:54:31.763Z,98712.28
2023-04-24T20:58:34.214Z,98703.44
2023-04-24T21:02:36.896Z,98700.72
2023-04-24T21:06:39.591Z,98706.28
2023-04-24T21:10:43.562Z,98699.22
2023-04-24T21:14:46.176Z,98699.13
2023-04-24T21:18:48.820Z,98689.94
2023-04-24T21:22:51.455Z,98699.13
2023-04-24T21:26:55.460Z,98693.38
2023-04-24T21:30:58.175Z,98695.72
2023-04-24T21:35:00.800Z,98690.91
2023-04-24T21:39:03.425Z,98684.84
2023-04-24T21:43:07.406Z,98678.94
2023-04-24T21:47:10.532Z,98672.03
2023-04-24T21:51:14.127Z,98677.75
2023-04-24T21:55:16.983Z,98670.66
2023-04-24T21:59:21.108Z,98663.97
2023-04-24T22:03:25.984Z,98640.78
2023-04-24T22:07:28.877Z,98653.38
2023-04-24T22:11:31.554Z,98667.06
2023-04-24T22:15:35.609Z,98646.66
2023-04-24T22:19:38.886Z,98664.53
2023-04-24T22:23:42.932Z,98661.97
2023-04-24T22:27:45.588Z,98657.22
2023-04-24T22:31:50.422Z,98659.09
2023-04-24T22:35:53.159Z,98664.28
2023-04-24T22:39:56.231Z,98663.81
2023-04-24T22:43:58.918Z,98663.06
2023-04-24T22:48:08.180Z,98652.34
2023-04-24T22:52:15.702Z,98659.50
2023-04-24T22:56:28.957Z,98662.22
2023-04-24T23:00:36.250Z,98641.56
2023-04-24T23:05:15.344Z,98670.84
2023-04-24T23:09:22.890Z,98667.31
2023-04-24T23:13:31.973Z,98664.13
2023-04-24T23:22:35.204Z,98664.22
2023-04-24T23:26:52.465Z,98658.72
2023-04-24T23:31:16.923Z,98656.66
2023-04-24T23:35:27.547Z,98648.91
2023-04-24T23:39:36.516Z,98648.28
2023-04-24T23:43:45.542Z,98641.66
2023-04-24T23:48:08.748Z,98622.94
2023-04-24T23:56:34.570Z,98621.00
